In Rescue
 
Open Full Screen Window  High Contrast Mode
January 22, 2020 5:46 PM CST
Present Weather: Mist
Weather Information
Wind Direction
  ---
Wind Speed
  00 kt (0 mph)
Wind Gust
  00 kt (0 mph)
Altimeter
29.89 in
Visibility
5 SM
Temperature
-06° C
21° F
Dewpoint
-08° C
18° F
Humidity
86%
1hr Rain Fall
00.00 in.
24hr Rain Fall
00.00 in.
Sky Condition
Overcast @ 1,200 ft
MVFR

METAR KRRT 222346Z AUTO 00000KT 5SM BR OVC012 M06/M08 A2989 RMK AO2

FAA Disclaimer: The data displayed is for advisory purposes only and is not to be used for flight planning or operations.